Аэропорт: Бесовец. Петрозаводск

ICAO: ULPB

METAR:
2021-04-21 20:00:00
ULPB 212000Z AUTO 25001MPS 2900 -SN 00/M00 Q1001 RMK QBB080 QFE747/0996
METAR:
Информация по данной станции не доступна